createdAt,value
2023-01-21T00:00:56.792Z,-3.55
2023-01-21T00:03:23.546Z,-3.68
2023-01-21T00:05:50.343Z,-3.65
2023-01-21T00:08:17.205Z,-3.72
2023-01-21T00:10:43.919Z,-3.79
2023-01-21T00:13:10.837Z,-3.75
2023-01-21T00:15:37.556Z,-3.71
2023-01-21T00:18:04.358Z,-3.73
2023-01-21T00:20:31.093Z,-3.74
2023-01-21T00:22:57.880Z,-3.76
2023-01-21T00:25:24.636Z,-3.81
2023-01-21T00:27:51.606Z,-3.91
2023-01-21T00:30:18.762Z,-4.06
2023-01-21T00:32:45.692Z,-4.01
2023-01-21T00:35:12.283Z,-3.89
2023-01-21T00:37:38.999Z,-3.98
2023-01-21T00:40:07.048Z,-3.93
2023-01-21T00:42:33.812Z,-3.93
2023-01-21T00:45:00.495Z,-3.98
2023-01-21T00:47:28.113Z,-3.95
2023-01-21T00:49:54.778Z,-3.92
2023-01-21T00:52:21.501Z,-4.15
2023-01-21T00:54:48.111Z,-4.07
2023-01-21T00:57:14.771Z,-3.99
2023-01-21T00:59:41.521Z,-4.10
2023-01-21T01:02:09.103Z,-3.84
2023-01-21T01:04:36.034Z,-3.87
2023-01-21T01:07:02.663Z,-4.09
2023-01-21T01:09:29.421Z,-4.16
2023-01-21T01:11:56.310Z,-4.20
2023-01-21T01:14:23.224Z,-4.26
2023-01-21T01:16:50.366Z,-4.39
2023-01-21T01:19:17.551Z,-4.29
2023-01-21T01:21:44.360Z,-4.24
2023-01-21T01:24:10.982Z,-4.62
2023-01-21T01:26:37.800Z,-4.35
2023-01-21T01:29:05.351Z,-4.38
2023-01-21T01:31:32.323Z,-4.26
2023-01-21T01:33:59.290Z,-4.43
2023-01-21T01:36:26.184Z,-4.40
2023-01-21T01:38:53.857Z,-4.51
2023-01-21T01:41:27.683Z,-4.56
2023-01-21T01:43:59.072Z,-4.57
2023-01-21T01:46:28.812Z,-4.56
2023-01-21T01:49:17.912Z,-4.70
2023-01-21T01:51:54.524Z,-4.66
2023-01-21T01:54:25.626Z,-4.61
2023-01-21T01:56:54.520Z,-4.65
2023-01-21T01:59:21.660Z,-4.65
2023-01-21T02:01:48.579Z,-4.76
2023-01-21T02:04:19.126Z,-4.53
2023-01-21T02:06:46.574Z,-4.56
2023-01-21T02:09:13.299Z,-4.95
2023-01-21T02:11:40.000Z,-4.62
2023-01-21T02:14:07.266Z,-4.70
2023-01-21T02:16:51.232Z,-4.78
2023-01-21T02:19:37.172Z,-4.74
2023-01-21T02:22:09.935Z,-4.74
2023-01-21T02:25:08.109Z,-4.73
2023-01-21T02:27:43.646Z,-4.64
2023-01-21T02:30:40.500Z,-4.76
2023-01-21T02:33:42.760Z,-4.64
2023-01-21T02:36:38.005Z,-4.75
2023-01-21T02:39:22.081Z,-4.65
2023-01-21T02:42:24.884Z,-4.67
2023-01-21T02:45:15.885Z,-4.62
2023-01-21T02:47:50.121Z,-4.65
2023-01-21T02:50:23.982Z,-4.62
2023-01-21T02:52:57.319Z,-4.69
2023-01-21T02:55:28.763Z,-4.80
2023-01-21T02:57:59.718Z,-4.67
2023-01-21T03:00:30.457Z,-4.64
2023-01-21T03:03:22.355Z,-4.70
2023-01-21T03:06:22.176Z,-4.69
2023-01-21T03:09:05.959Z,-4.67
2023-01-21T03:11:33.135Z,-4.76
2023-01-21T03:14:42.593Z,-4.64
2023-01-21T03:17:43.415Z,-4.66
2023-01-21T03:20:40.997Z,-4.79
2023-01-21T03:23:18.221Z,-4.99
2023-01-21T03:25:46.519Z,-4.78
2023-01-21T03:28:17.803Z,-4.90
2023-01-21T03:30:47.847Z,-4.93
2023-01-21T03:33:16.640Z,-4.96
2023-01-21T03:35:45.954Z,-4.90
2023-01-21T03:38:19.620Z,-4.85
2023-01-21T03:40:56.734Z,-4.90
2023-01-21T03:43:23.394Z,-4.84
2023-01-21T03:46:05.194Z,-4.88
2023-01-21T03:48:39.432Z,-5.17
2023-01-21T03:51:10.258Z,-5.07
2023-01-21T03:53:37.073Z,-4.98
2023-01-21T03:56:04.590Z,-4.83
2023-01-21T03:58:31.346Z,-5.00
2023-01-21T04:00:58.292Z,-4.90
2023-01-21T04:03:25.024Z,-4.80
2023-01-21T04:05:51.656Z,-5.02
2023-01-21T04:08:18.315Z,-4.83
2023-01-21T04:10:45.021Z,-4.72
2023-01-21T04:13:11.608Z,-4.70
2023-01-21T04:15:38.279Z,-4.52
2023-01-21T04:18:04.879Z,-4.55
2023-01-21T04:20:31.583Z,-4.53
2023-01-21T04:22:58.235Z,-4.58
2023-01-21T04:25:24.890Z,-4.52
2023-01-21T04:27:51.569Z,-4.52
2023-01-21T04:30:18.700Z,-4.49
2023-01-21T04:32:46.606Z,-4.57
2023-01-21T04:35:13.281Z,-4.55
2023-01-21T04:37:39.920Z,-4.40
2023-01-21T04:40:07.243Z,-4.26
2023-01-21T04:42:33.910Z,-4.23
2023-01-21T04:45:00.565Z,-4.46
2023-01-21T04:47:27.463Z,-4.53
2023-01-21T04:49:54.120Z,-4.40
2023-01-21T04:52:21.101Z,-4.40
2023-01-21T04:54:47.723Z,-4.35
2023-01-21T04:57:14.457Z,-4.35
2023-01-21T04:59:41.142Z,-4.18
2023-01-21T05:02:07.993Z,-4.03
2023-01-21T05:04:34.693Z,-4.11
2023-01-21T05:07:01.462Z,-4.11
2023-01-21T05:09:28.233Z,-4.04
2023-01-21T05:11:54.867Z,-4.11
2023-01-21T05:14:21.618Z,-4.08
2023-01-21T05:16:48.309Z,-4.12
2023-01-21T05:19:15.399Z,-4.04
2023-01-21T05:21:42.051Z,-4.10
2023-01-21T05:24:08.887Z,-3.97
2023-01-21T05:26:35.818Z,-3.86
2023-01-21T05:29:02.496Z,-3.80
2023-01-21T05:31:29.340Z,-3.75
2023-01-21T05:33:57.216Z,-3.70
2023-01-21T05:36:23.852Z,-3.52
2023-01-21T05:38:50.483Z,-3.50
2023-01-21T05:41:17.202Z,-3.77
2023-01-21T05:43:43.908Z,-3.69
2023-01-21T05:46:10.878Z,-3.68
2023-01-21T05:48:37.565Z,-3.65
2023-01-21T05:51:04.962Z,-3.59
2023-01-21T05:53:31.600Z,-3.50
2023-01-21T05:55:58.286Z,-3.47
2023-01-21T05:58:25.365Z,-3.46
2023-01-21T06:00:52.339Z,-3.37
2023-01-21T06:03:19.481Z,-3.41
2023-01-21T06:05:47.180Z,-3.49
2023-01-21T06:08:13.854Z,-3.48
2023-01-21T06:10:40.476Z,-3.34
2023-01-21T06:13:07.146Z,-3.34
2023-01-21T06:15:33.939Z,-3.26
2023-01-21T06:18:01.404Z,-3.28
2023-01-21T06:20:30.630Z,-3.38
2023-01-21T06:22:58.114Z,-3.33
2023-01-21T06:25:26.102Z,-3.31
2023-01-21T06:27:56.051Z,-3.35
2023-01-21T06:30:23.900Z,-3.33
2023-01-21T06:32:51.005Z,-3.13
2023-01-21T06:35:18.155Z,-3.24
2023-01-21T06:37:45.694Z,-3.15
2023-01-21T06:40:13.884Z,-3.25
2023-01-21T06:42:40.887Z,-3.49
2023-01-21T06:45:08.159Z,-3.69
2023-01-21T06:47:35.479Z,-3.72
2023-01-21T06:50:02.106Z,-3.49
2023-01-21T06:52:29.063Z,-3.30
2023-01-21T06:54:55.672Z,-3.33
2023-01-21T06:57:22.395Z,-3.50
2023-01-21T06:59:49.110Z,-3.59
2023-01-21T07:02:15.904Z,-3.43
2023-01-21T07:04:42.601Z,-3.46
2023-01-21T07:07:09.279Z,-3.62
2023-01-21T07:09:36.044Z,-3.71
2023-01-21T07:12:02.737Z,-3.53
2023-01-21T07:14:29.409Z,-3.56
2023-01-21T07:16:56.854Z,-3.62
2023-01-21T07:19:23.863Z,-3.59
2023-01-21T07:21:50.837Z,-3.57
2023-01-21T07:24:17.806Z,-3.49
2023-01-21T07:26:44.503Z,-3.50
2023-01-21T07:29:11.228Z,-3.52
2023-01-21T07:31:38.126Z,-3.53
2023-01-21T07:34:04.802Z,-3.45
2023-01-21T07:36:31.722Z,-3.34
2023-01-21T07:38:59.729Z,-3.37
2023-01-21T07:41:26.545Z,-3.34
2023-01-21T07:43:53.169Z,-3.35
2023-01-21T07:46:21.050Z,-3.30
2023-01-21T07:48:48.768Z,-3.30
2023-01-21T07:51:15.490Z,-3.27
2023-01-21T07:53:42.307Z,-3.14
2023-01-21T07:56:10.436Z,-3.04
2023-01-21T07:58:37.854Z,-2.91
2023-01-21T08:01:09.049Z,-2.76
2023-01-21T08:03:37.033Z,-2.58
2023-01-21T08:06:04.933Z,-2.47
2023-01-21T08:08:32.148Z,-2.29
2023-01-21T08:10:59.025Z,-2.25
2023-01-21T08:13:25.849Z,-2.01
2023-01-21T08:15:53.694Z,-1.99
2023-01-21T08:18:22.341Z,-2.00
2023-01-21T08:20:49.538Z,-2.03
2023-01-21T08:23:16.138Z,-1.82
2023-01-21T08:25:42.840Z,-1.80
2023-01-21T08:28:09.523Z,-1.88
2023-01-21T08:30:36.577Z,-1.87
2023-01-21T08:33:05.572Z,-1.73
2023-01-21T08:35:33.139Z,-1.64
2023-01-21T08:37:59.745Z,-1.56
2023-01-21T08:40:27.579Z,-1.64
2023-01-21T08:43:02.327Z,-1.51
2023-01-21T08:45:29.793Z,-1.42
2023-01-21T08:47:57.137Z,-1.25
2023-01-21T08:50:24.296Z,-1.36
2023-01-21T08:52:52.643Z,-1.34
2023-01-21T08:55:19.785Z,-1.31
2023-01-21T08:57:46.967Z,-1.27
2023-01-21T09:00:14.751Z,-1.26
2023-01-21T09:02:41.392Z,-1.24
2023-01-21T09:05:08.465Z,-1.20
2023-01-21T09:07:35.087Z,-1.14
2023-01-21T09:10:02.648Z,-1.21
2023-01-21T09:12:29.332Z,-1.20
2023-01-21T09:14:56.032Z,-1.11
2023-01-21T09:17:23.291Z,-1.18
2023-01-21T09:19:49.911Z,-1.26
2023-01-21T09:22:17.206Z,-1.02
2023-01-21T09:24:44.928Z,-0.93
2023-01-21T09:27:11.564Z,-1.08
2023-01-21T09:29:38.218Z,-1.14
2023-01-21T09:32:05.524Z,-1.11
2023-01-21T09:34:34.736Z,-1.11
2023-01-21T09:37:03.244Z,-1.06
2023-01-21T09:39:29.953Z,-0.96
2023-01-21T09:41:56.849Z,-0.99
2023-01-21T09:44:44.118Z,-0.95
2023-01-21T09:47:21.161Z,-0.95
2023-01-21T09:49:50.280Z,-1.02
2023-01-21T09:52:43.214Z,-0.99
2023-01-21T09:55:16.976Z,-0.95
2023-01-21T09:58:02.937Z,-1.06
2023-01-21T10:01:00.830Z,-0.88
2023-01-21T10:03:48.788Z,-0.83
2023-01-21T10:06:35.447Z,-0.74
2023-01-21T10:09:46.188Z,-0.65
2023-01-21T10:12:28.171Z,-0.72
2023-01-21T10:15:11.090Z,-0.61
2023-01-21T10:18:13.851Z,-0.47
2023-01-21T10:20:46.438Z,-0.31
2023-01-21T10:23:22.150Z,-0.11
2023-01-21T10:25:50.087Z,-0.28
2023-01-21T10:28:25.913Z,-0.28
2023-01-21T10:30:54.584Z,-0.13
2023-01-21T10:33:26.208Z,-0.20
2023-01-21T10:36:14.162Z,-0.23
2023-01-21T10:38:57.233Z,-0.13
2023-01-21T10:42:04.949Z,0.01
2023-01-21T10:44:50.002Z,-0.06
2023-01-21T10:47:34.514Z,0.00
2023-01-21T10:50:50.688Z,0.15
2023-01-21T10:53:34.712Z,-0.07
2023-01-21T10:56:19.004Z,-0.02
2023-01-21T10:58:58.331Z,0.04
2023-01-21T11:01:31.063Z,0.14
2023-01-21T11:04:00.398Z,0.11
2023-01-21T11:06:29.184Z,0.24
2023-01-21T11:08:59.005Z,0.28
2023-01-21T11:11:28.452Z,0.12
2023-01-21T11:13:56.089Z,0.16
2023-01-21T11:16:44.455Z,0.25
2023-01-21T11:19:30.824Z,0.31
2023-01-21T11:22:21.349Z,0.22
2023-01-21T11:24:54.697Z,0.27
2023-01-21T11:27:23.599Z,0.30
2023-01-21T11:29:50.827Z,0.39
2023-01-21T11:32:23.006Z,0.39
2023-01-21T11:34:51.831Z,0.32
2023-01-21T11:37:27.193Z,0.33
2023-01-21T11:40:05.014Z,0.38
2023-01-21T11:42:31.917Z,0.41
2023-01-21T11:45:01.678Z,0.41
2023-01-21T11:47:44.450Z,0.42
2023-01-21T11:50:28.840Z,0.42
2023-01-21T11:53:12.452Z,0.32
2023-01-21T11:55:46.248Z,0.28
2023-01-21T11:58:19.322Z,0.28
2023-01-21T12:00:47.519Z,0.28
2023-01-21T12:03:20.804Z,0.25
2023-01-21T12:05:52.337Z,0.32
2023-01-21T12:08:24.684Z,0.39
2023-01-21T12:10:52.547Z,0.43
2023-01-21T12:13:41.783Z,0.27
2023-01-21T12:16:27.483Z,0.14
2023-01-21T12:19:23.523Z,0.20
2023-01-21T12:22:15.023Z,0.25
2023-01-21T12:25:00.732Z,0.18
2023-01-21T12:27:51.756Z,0.31
2023-01-21T12:30:54.252Z,0.27
2023-01-21T12:33:42.416Z,0.21
2023-01-21T12:36:19.874Z,0.37
2023-01-21T12:38:52.043Z,0.31
2023-01-21T12:41:22.922Z,0.30
2023-01-21T12:43:53.845Z,0.26
2023-01-21T12:46:23.990Z,0.42
2023-01-21T12:49:15.648Z,0.34
2023-01-21T12:51:45.729Z,0.37
2023-01-21T12:54:28.550Z,0.35
2023-01-21T12:57:19.622Z,0.54
2023-01-21T13:00:10.015Z,0.40
2023-01-21T13:02:54.019Z,0.38
2023-01-21T13:05:35.671Z,0.36
2023-01-21T13:08:33.905Z,0.51
2023-01-21T13:11:11.925Z,0.57
2023-01-21T13:13:49.696Z,0.62
2023-01-21T13:16:16.459Z,0.49
2023-01-21T13:18:51.831Z,0.53
2023-01-21T13:21:32.220Z,0.57
2023-01-21T13:24:20.419Z,0.57
2023-01-21T13:27:05.536Z,0.61
2023-01-21T13:30:02.678Z,0.65
2023-01-21T13:32:48.781Z,0.54
2023-01-21T13:35:45.772Z,0.67
2023-01-21T13:38:35.306Z,0.53
2023-01-21T13:41:32.592Z,0.62
2023-01-21T13:44:48.889Z,0.61
2023-01-21T13:47:48.933Z,0.62
2023-01-21T13:51:04.053Z,0.58
2023-01-21T13:54:11.708Z,0.53
2023-01-21T13:57:20.286Z,0.51
2023-01-21T13:59:53.897Z,0.53
2023-01-21T14:02:35.959Z,0.60
2023-01-21T14:05:07.943Z,0.59
2023-01-21T14:08:07.708Z,0.67
2023-01-21T14:10:41.790Z,0.70
2023-01-21T14:13:11.182Z,0.67
2023-01-21T14:16:16.258Z,0.72
2023-01-21T14:19:05.117Z,0.61
2023-01-21T14:21:45.481Z,0.65
2023-01-21T14:24:25.796Z,0.77
2023-01-21T14:27:26.847Z,0.53
2023-01-21T14:30:27.119Z,0.73
2023-01-21T14:33:00.799Z,0.51
2023-01-21T14:35:47.888Z,0.68
2023-01-21T14:38:30.786Z,0.63
2023-01-21T14:41:09.409Z,0.75
2023-01-21T14:43:36.776Z,0.73
2023-01-21T14:46:30.274Z,0.72
2023-01-21T14:49:06.535Z,0.65
2023-01-21T14:51:35.801Z,0.70
2023-01-21T14:54:14.875Z,0.67
2023-01-21T14:56:52.588Z,0.66
2023-01-21T14:59:42.297Z,0.67
2023-01-21T15:02:46.263Z,0.89
2023-01-21T15:05:36.581Z,0.66
2023-01-21T15:08:27.286Z,0.81
2023-01-21T15:10:58.109Z,0.72
2023-01-21T15:13:41.353Z,0.88
2023-01-21T15:16:21.127Z,0.75
2023-01-21T15:19:30.108Z,0.68
2023-01-21T15:21:59.962Z,0.65
2023-01-21T15:24:44.748Z,0.65
2023-01-21T15:27:26.099Z,0.60
2023-01-21T15:30:23.696Z,0.63
2023-01-21T15:32:56.662Z,0.66
2023-01-21T15:35:49.705Z,0.55
2023-01-21T15:38:18.637Z,0.74
2023-01-21T15:40:53.773Z,0.54
2023-01-21T15:43:39.291Z,0.55
2023-01-21T15:46:27.856Z,0.51
2023-01-21T15:49:13.648Z,0.56
2023-01-21T15:52:16.563Z,0.63
2023-01-21T15:54:58.254Z,0.56
2023-01-21T15:57:50.753Z,0.34
2023-01-21T16:00:31.863Z,0.42
2023-01-21T16:03:51.284Z,0.50
2023-01-21T16:06:30.158Z,0.62
2023-01-21T16:09:25.959Z,0.55
2023-01-21T16:12:05.641Z,0.47
2023-01-21T16:15:15.590Z,0.63
2023-01-21T16:18:16.879Z,0.53
2023-01-21T16:23:43.789Z,0.57
2023-01-21T16:26:16.332Z,0.65
2023-01-21T16:28:57.439Z,0.62
2023-01-21T16:31:25.836Z,0.71
2023-01-21T16:33:57.172Z,0.65
2023-01-21T16:36:28.905Z,0.71
2023-01-21T16:38:58.296Z,0.67
2023-01-21T16:41:28.245Z,0.75
2023-01-21T16:44:00.378Z,0.71
2023-01-21T16:46:47.160Z,0.80
2023-01-21T16:49:20.935Z,0.73
2023-01-21T16:51:56.968Z,0.74
2023-01-21T16:54:30.835Z,0.76
2023-01-21T16:57:03.393Z,0.83
2023-01-21T16:59:44.935Z,0.83
2023-01-21T17:02:32.826Z,0.79
2023-01-21T17:05:02.347Z,0.77
2023-01-21T17:07:33.208Z,0.90
2023-01-21T17:10:03.967Z,0.87
2023-01-21T17:12:31.110Z,0.85
2023-01-21T17:15:01.364Z,0.77
2023-01-21T17:17:31.962Z,0.73
2023-01-21T17:20:02.604Z,0.82
2023-01-21T17:22:34.028Z,0.89
2023-01-21T17:25:31.915Z,0.94
2023-01-21T17:28:40.062Z,0.91
2023-01-21T17:31:19.806Z,0.76
2023-01-21T17:34:13.009Z,0.73
2023-01-21T17:36:54.327Z,0.81
2023-01-21T17:40:24.808Z,0.91
2023-01-21T17:42:52.411Z,1.00
2023-01-21T17:45:41.114Z,0.90
2023-01-21T17:48:29.207Z,0.84
2023-01-21T17:51:11.717Z,0.81
2023-01-21T17:54:10.388Z,0.84
2023-01-21T17:56:57.831Z,0.83
2023-01-21T17:59:47.371Z,0.85
2023-01-21T18:02:18.988Z,0.84
2023-01-21T18:04:49.090Z,0.83
2023-01-21T18:07:33.838Z,0.86
2023-01-21T18:10:04.418Z,0.80
2023-01-21T18:12:45.711Z,0.88
2023-01-21T18:15:28.093Z,0.98
2023-01-21T18:18:01.804Z,0.96
2023-01-21T18:20:46.149Z,1.11
2023-01-21T18:26:52.195Z,1.11
2023-01-21T18:29:22.153Z,1.06
2023-01-21T18:31:59.435Z,1.01
2023-01-21T18:34:35.005Z,1.05
2023-01-21T18:37:15.619Z,1.09
2023-01-21T18:39:48.036Z,1.22
2023-01-21T18:42:18.827Z,1.12
2023-01-21T18:44:53.447Z,1.29
2023-01-21T18:47:25.283Z,1.17
2023-01-21T18:49:53.274Z,1.25
2023-01-21T18:52:38.184Z,1.19
2023-01-21T18:55:42.193Z,1.30
2023-01-21T18:58:19.301Z,1.21
2023-01-21T19:00:46.971Z,1.12
2023-01-21T19:03:37.029Z,1.19
2023-01-21T19:06:18.278Z,1.23
2023-01-21T19:08:52.561Z,1.27
2023-01-21T19:11:22.779Z,1.25
2023-01-21T19:17:14.725Z,1.38
2023-01-21T19:19:52.577Z,1.34
2023-01-21T19:22:23.935Z,1.27
2023-01-21T19:25:01.404Z,1.24
2023-01-21T19:27:39.847Z,1.23
2023-01-21T19:30:32.820Z,1.16
2023-01-21T19:33:05.844Z,1.16
2023-01-21T19:35:37.290Z,0.98
2023-01-21T19:38:37.724Z,1.01
2023-01-21T19:41:07.735Z,1.13
2023-01-21T19:43:38.061Z,0.97
2023-01-21T19:46:12.026Z,0.98
2023-01-21T19:48:42.118Z,1.05
2023-01-21T19:51:16.379Z,1.05
2023-01-21T19:53:43.516Z,1.15
2023-01-21T19:56:18.800Z,1.03
2023-01-21T19:58:51.455Z,0.91
2023-01-21T20:01:19.432Z,0.98
2023-01-21T20:04:00.599Z,1.00
2023-01-21T20:06:33.102Z,0.97
2023-01-21T20:09:03.211Z,1.06
2023-01-21T20:11:34.156Z,1.01
2023-01-21T20:14:02.532Z,1.01
2023-01-21T20:16:35.489Z,0.96
2023-01-21T20:22:02.925Z,1.01
2023-01-21T20:24:41.326Z,0.90
2023-01-21T20:27:18.706Z,1.00
2023-01-21T20:30:14.916Z,1.08
2023-01-21T20:32:44.663Z,1.07
2023-01-21T20:35:31.656Z,1.08
2023-01-21T20:38:00.393Z,1.05
2023-01-21T20:40:30.075Z,1.03
2023-01-21T20:42:59.052Z,1.08
2023-01-21T20:45:33.049Z,1.16
2023-01-21T20:48:04.256Z,1.03
2023-01-21T20:50:35.923Z,1.09
2023-01-21T20:53:06.130Z,1.06
2023-01-21T20:55:44.471Z,1.19
2023-01-21T21:01:09.491Z,1.19
2023-01-21T21:03:39.663Z,1.18
2023-01-21T21:06:19.022Z,1.23
2023-01-21T21:08:47.028Z,1.18
2023-01-21T21:11:28.576Z,1.20
2023-01-21T21:13:59.384Z,1.28
2023-01-21T21:16:46.874Z,1.20
2023-01-21T21:19:17.727Z,1.24
2023-01-21T21:21:45.651Z,1.20
2023-01-21T21:24:26.446Z,1.21
2023-01-21T21:26:57.687Z,1.19
2023-01-21T21:29:29.534Z,1.28
2023-01-21T21:32:03.135Z,1.38
2023-01-21T21:34:34.376Z,1.30
2023-01-21T21:37:14.305Z,1.33
2023-01-21T21:39:48.983Z,1.39
2023-01-21T21:42:58.274Z,1.27
2023-01-21T21:45:25.491Z,1.21
2023-01-21T21:48:17.672Z,1.17
2023-01-21T21:50:44.809Z,1.22
2023-01-21T21:53:13.704Z,1.15
2023-01-21T21:55:46.605Z,1.15
2023-01-21T21:58:16.614Z,1.28
2023-01-21T22:01:11.946Z,1.13
2023-01-21T22:03:42.275Z,1.29
2023-01-21T22:06:10.419Z,1.23
2023-01-21T22:08:39.615Z,1.20
2023-01-21T22:11:16.770Z,1.31
2023-01-21T22:13:48.375Z,1.22
2023-01-21T22:16:23.180Z,1.19
2023-01-21T22:18:51.859Z,1.16
2023-01-21T22:21:34.675Z,1.08
2023-01-21T22:24:10.905Z,1.21
2023-01-21T22:27:00.823Z,1.27
2023-01-21T22:29:27.951Z,1.36
2023-01-21T22:32:21.180Z,1.23
2023-01-21T22:34:55.986Z,1.30
2023-01-21T22:37:27.038Z,1.19
2023-01-21T22:39:59.117Z,1.15
2023-01-21T22:42:30.031Z,1.14
2023-01-21T22:45:07.614Z,1.15
2023-01-21T22:47:39.796Z,1.25
2023-01-21T22:50:11.859Z,1.39
2023-01-21T22:52:42.306Z,1.28
2023-01-21T22:55:15.639Z,1.33
2023-01-21T22:58:06.329Z,1.25
2023-01-21T23:00:41.307Z,1.23
2023-01-21T23:03:11.777Z,1.33
2023-01-21T23:05:39.983Z,1.39
2023-01-21T23:08:06.942Z,1.34
2023-01-21T23:10:43.858Z,1.36
2023-01-21T23:13:19.928Z,1.28
2023-01-21T23:15:54.888Z,1.35
2023-01-21T23:18:31.246Z,1.37
2023-01-21T23:21:16.901Z,1.43
2023-01-21T23:23:43.994Z,1.31
2023-01-21T23:26:13.211Z,1.42
2023-01-21T23:28:46.235Z,1.21
2023-01-21T23:31:21.692Z,1.32
2023-01-21T23:33:53.252Z,1.28
2023-01-21T23:36:24.430Z,1.39
2023-01-21T23:38:57.344Z,1.39
2023-01-21T23:41:24.256Z,1.22
2023-01-21T23:43:51.754Z,1.29
2023-01-21T23:46:19.884Z,1.19
2023-01-21T23:48:46.964Z,1.23
2023-01-21T23:51:14.982Z,1.34
2023-01-21T23:53:41.840Z,1.21
2023-01-21T23:56:26.842Z,1.31
2023-01-21T23:58:53.906Z,1.28
